sensor_id;sensor_type;location;lat;lon;timestamp;pressure;altitude;pressure_sealevel;temperature;humidity
6347;BME280;3206;42.666;23.600;2022-09-23T00:01:45;95413.09;;;6.69;100.00
6347;BME280;3206;42.666;23.600;2022-09-23T00:04:12;95413.53;;;6.63;100.00
6347;BME280;3206;42.666;23.600;2022-09-23T00:06:38;95417.91;;;6.59;100.00
6347;BME280;3206;42.666;23.600;2022-09-23T00:09:05;95415.22;;;6.50;100.00
6347;BME280;3206;42.666;23.600;2022-09-23T00:11:33;95413.16;;;6.47;100.00
6347;BME280;3206;42.666;23.600;2022-09-23T00:14:00;95404.09;;;6.40;100.00
6347;BME280;3206;42.666;23.600;2022-09-23T00:16:28;95392.16;;;6.29;100.00
6347;BME280;3206;42.666;23.600;2022-09-23T00:18:57;95410.94;;;6.41;100.00
6347;BME280;3206;42.666;23.600;2022-09-23T00:21:24;95405.84;;;6.44;100.00
6347;BME280;3206;42.666;23.600;2022-09-23T00:23:50;95386.72;;;6.34;100.00
6347;BME280;3206;42.666;23.600;2022-09-23T00:26:19;95403.28;;;6.39;100.00
6347;BME280;3206;42.666;23.600;2022-09-23T00:28:48;95401.72;;;6.38;100.00
6347;BME280;3206;42.666;23.600;2022-09-23T00:31:17;95406.03;;;6.26;100.00
6347;BME280;3206;42.666;23.600;2022-09-23T00:33:44;95405.09;;;6.00;100.00
6347;BME280;3206;42.666;23.600;2022-09-23T00:36:12;95388.69;;;5.89;100.00
6347;BME280;3206;42.666;23.600;2022-09-23T00:38:39;95397.28;;;5.95;100.00
6347;BME280;3206;42.666;23.600;2022-09-23T00:41:06;95388.84;;;5.49;100.00
6347;BME280;3206;42.666;23.600;2022-09-23T00:43:38;95386.97;;;5.71;100.00
6347;BME280;3206;42.666;23.600;2022-09-23T00:46:09;95400.22;;;5.71;100.00
6347;BME280;3206;42.666;23.600;2022-09-23T00:48:39;95389.34;;;5.95;100.00
6347;BME280;3206;42.666;23.600;2022-09-23T00:51:08;95388.13;;;6.01;100.00
6347;BME280;3206;42.666;23.600;2022-09-23T00:53:35;95392.88;;;6.12;100.00
6347;BME280;3206;42.666;23.600;2022-09-23T00:56:05;95386.97;;;6.15;100.00
6347;BME280;3206;42.666;23.600;2022-09-23T00:58:35;95397.38;;;6.12;100.00
6347;BME280;3206;42.666;23.600;2022-09-23T01:01:04;95397.06;;;6.05;100.00
6347;BME280;3206;42.666;23.600;2022-09-23T01:03:32;95399.56;;;6.10;100.00
6347;BME280;3206;42.666;23.600;2022-09-23T01:05:59;95390.00;;;6.00;100.00
6347;BME280;3206;42.666;23.600;2022-09-23T01:08:26;95390.19;;;6.04;100.00
6347;BME280;3206;42.666;23.600;2022-09-23T01:10:59;95399.22;;;6.03;100.00
6347;BME280;3206;42.666;23.600;2022-09-23T01:13:35;95375.31;;;5.94;100.00
6347;BME280;3206;42.666;23.600;2022-09-23T01:16:07;95402.34;;;6.05;100.00
6347;BME280;3206;42.666;23.600;2022-09-23T01:18:43;95401.75;;;6.08;100.00
6347;BME280;3206;42.666;23.600;2022-09-23T01:21:27;95397.94;;;6.00;100.00
6347;BME280;3206;42.666;23.600;2022-09-23T01:24:14;95393.56;;;5.96;100.00
6347;BME280;3206;42.666;23.600;2022-09-23T01:26:53;95398.19;;;5.90;100.00
6347;BME280;3206;42.666;23.600;2022-09-23T01:30:05;95397.72;;;5.88;100.00
6347;BME280;3206;42.666;23.600;2022-09-23T01:33:01;95397.38;;;5.68;100.00
6347;BME280;3206;42.666;23.600;2022-09-23T01:35:41;95398.00;;;5.65;100.00
6347;BME280;3206;42.666;23.600;2022-09-23T01:38:18;95394.19;;;5.36;100.00
6347;BME280;3206;42.666;23.600;2022-09-23T01:40:50;95395.16;;;5.40;100.00
6347;BME280;3206;42.666;23.600;2022-09-23T01:43:29;95403.41;;;5.38;100.00
6347;BME280;3206;42.666;23.600;2022-09-23T01:46:02;95401.13;;;5.45;100.00
6347;BME280;3206;42.666;23.600;2022-09-23T01:48:36;95401.00;;;5.50;100.00
6347;BME280;3206;42.666;23.600;2022-09-23T01:51:08;95405.03;;;5.47;100.00
6347;BME280;3206;42.666;23.600;2022-09-23T01:53:42;95398.06;;;5.51;100.00
6347;BME280;3206;42.666;23.600;2022-09-23T01:56:15;95396.91;;;5.44;100.00
6347;BME280;3206;42.666;23.600;2022-09-23T01:58:46;95407.50;;;5.44;100.00
6347;BME280;3206;42.666;23.600;2022-09-23T02:01:16;95397.50;;;5.41;100.00
6347;BME280;3206;42.666;23.600;2022-09-23T02:03:51;95341.56;;;4.99;100.00
6347;BME280;3206;42.666;23.600;2022-09-23T02:06:22;95403.66;;;5.15;100.00
6347;BME280;3206;42.666;23.600;2022-09-23T02:08:56;95401.25;;;5.27;100.00
6347;BME280;3206;42.666;23.600;2022-09-23T02:11:25;95406.56;;;5.27;100.00
6347;BME280;3206;42.666;23.600;2022-09-23T02:13:54;95403.91;;;5.27;100.00
6347;BME280;3206;42.666;23.600;2022-09-23T02:16:25;95396.34;;;5.34;100.00
6347;BME280;3206;42.666;23.600;2022-09-23T02:18:57;95383.34;;;5.24;100.00
6347;BME280;3206;42.666;23.600;2022-09-23T02:21:32;95384.13;;;5.24;100.00
6347;BME280;3206;42.666;23.600;2022-09-23T02:24:04;95402.31;;;5.39;100.00
6347;BME280;3206;42.666;23.600;2022-09-23T02:26:35;95400.09;;;5.33;100.00
6347;BME280;3206;42.666;23.600;2022-09-23T02:29:08;95405.97;;;5.30;100.00
6347;BME280;3206;42.666;23.600;2022-09-23T02:31:41;95401.94;;;5.32;100.00
6347;BME280;3206;42.666;23.600;2022-09-23T02:34:18;95408.78;;;5.33;100.00
6347;BME280;3206;42.666;23.600;2022-09-23T02:36:52;95409.19;;;5.27;100.00
6347;BME280;3206;42.666;23.600;2022-09-23T02:39:22;95410.31;;;5.12;100.00
6347;BME280;3206;42.666;23.600;2022-09-23T02:41:57;95410.56;;;4.89;100.00
6347;BME280;3206;42.666;23.600;2022-09-23T02:44:25;95401.75;;;4.93;100.00
6347;BME280;3206;42.666;23.600;2022-09-23T02:46:53;95407.19;;;5.10;100.00
6347;BME280;3206;42.666;23.600;2022-09-23T02:49:25;95414.69;;;4.81;100.00
6347;BME280;3206;42.666;23.600;2022-09-23T02:51:53;95409.69;;;4.80;100.00
6347;BME280;3206;42.666;23.600;2022-09-23T02:54:23;95411.84;;;4.64;100.00
6347;BME280;3206;42.666;23.600;2022-09-23T02:56:51;95411.94;;;4.73;100.00
6347;BME280;3206;42.666;23.600;2022-09-23T02:59:20;95411.75;;;4.69;100.00
6347;BME280;3206;42.666;23.600;2022-09-23T03:01:58;95413.91;;;4.67;100.00
6347;BME280;3206;42.666;23.600;2022-09-23T03:04:36;95393.44;;;4.59;100.00
6347;BME280;3206;42.666;23.600;2022-09-23T03:07:13;95417.91;;;4.78;100.00
6347;BME280;3206;42.666;23.600;2022-09-23T03:09:49;95414.38;;;4.69;100.00
6347;BME280;3206;42.666;23.600;2022-09-23T03:12:24;95419.28;;;4.76;100.00
6347;BME280;3206;42.666;23.600;2022-09-23T03:15:09;95380.41;;;4.36;100.00
6347;BME280;3206;42.666;23.600;2022-09-23T03:17:43;95407.03;;;4.66;100.00
6347;BME280;3206;42.666;23.600;2022-09-23T03:20:19;95418.59;;;4.84;100.00
6347;BME280;3206;42.666;23.600;2022-09-23T03:22:52;95421.94;;;4.89;100.00
6347;BME280;3206;42.666;23.600;2022-09-23T03:25:23;95414.50;;;4.91;100.00
6347;BME280;3206;42.666;23.600;2022-09-23T03:27:54;95415.84;;;4.89;100.00
6347;BME280;3206;42.666;23.600;2022-09-23T03:30:22;95418.13;;;4.82;100.00
6347;BME280;3206;42.666;23.600;2022-09-23T03:32:51;95422.63;;;4.81;100.00
6347;BME280;3206;42.666;23.600;2022-09-23T03:35:22;95419.19;;;4.67;100.00
6347;BME280;3206;42.666;23.600;2022-09-23T03:37:54;95420.75;;;4.68;100.00
6347;BME280;3206;42.666;23.600;2022-09-23T03:40:24;95421.16;;;4.48;100.00
6347;BME280;3206;42.666;23.600;2022-09-23T03:42:54;95426.63;;;4.65;100.00
6347;BME280;3206;42.666;23.600;2022-09-23T03:45:25;95428.78;;;4.63;100.00
6347;BME280;3206;42.666;23.600;2022-09-23T03:47:53;95426.25;;;4.58;100.00
6347;BME280;3206;42.666;23.600;2022-09-23T03:50:21;95430.38;;;4.64;100.00
6347;BME280;3206;42.666;23.600;2022-09-23T03:52:48;95423.50;;;4.63;100.00
6347;BME280;3206;42.666;23.600;2022-09-23T03:55:16;95434.00;;;4.55;100.00
6347;BME280;3206;42.666;23.600;2022-09-23T03:57:43;95441.66;;;4.56;100.00
6347;BME280;3206;42.666;23.600;2022-09-23T04:00:11;95440.94;;;4.64;100.00
6347;BME280;3206;42.666;23.600;2022-09-23T04:02:39;95440.56;;;4.71;100.00
6347;BME280;3206;42.666;23.600;2022-09-23T04:05:07;95439.00;;;4.70;100.00
6347;BME280;3206;42.666;23.600;2022-09-23T04:07:36;95434.50;;;4.70;100.00
6347;BME280;3206;42.666;23.600;2022-09-23T04:10:03;95435.84;;;4.81;100.00
6347;BME280;3206;42.666;23.600;2022-09-23T04:12:30;95436.34;;;4.83;100.00
6347;BME280;3206;42.666;23.600;2022-09-23T04:14:57;95434.00;;;4.82;100.00
6347;BME280;3206;42.666;23.600;2022-09-23T04:17:24;95439.56;;;4.80;100.00
6347;BME280;3206;42.666;23.600;2022-09-23T04:19:51;95432.03;;;4.74;100.00
6347;BME280;3206;42.666;23.600;2022-09-23T04:22:17;95431.63;;;4.80;100.00
6347;BME280;3206;42.666;23.600;2022-09-23T04:24:45;95435.16;;;4.89;100.00
6347;BME280;3206;42.666;23.600;2022-09-23T04:27:13;95434.25;;;4.94;100.00
6347;BME280;3206;42.666;23.600;2022-09-23T04:29:40;95432.34;;;4.72;100.00
6347;BME280;3206;42.666;23.600;2022-09-23T04:32:07;95442.81;;;4.77;100.00
6347;BME280;3206;42.666;23.600;2022-09-23T04:34:33;95443.31;;;4.79;100.00
6347;BME280;3206;42.666;23.600;2022-09-23T04:37:00;95447.50;;;5.07;100.00
6347;BME280;3206;42.666;23.600;2022-09-23T04:39:27;95450.50;;;5.14;100.00
6347;BME280;3206;42.666;23.600;2022-09-23T04:41:55;95454.66;;;5.20;100.00
6347;BME280;3206;42.666;23.600;2022-09-23T04:44:21;95451.28;;;5.28;100.00
6347;BME280;3206;42.666;23.600;2022-09-23T04:46:48;95461.44;;;5.48;100.00
6347;BME280;3206;42.666;23.600;2022-09-23T04:49:16;95468.91;;;5.46;100.00
6347;BME280;3206;42.666;23.600;2022-09-23T04:51:43;95465.56;;;5.41;100.00
6347;BME280;3206;42.666;23.600;2022-09-23T04:54:11;95461.97;;;5.58;100.00
6347;BME280;3206;42.666;23.600;2022-09-23T04:56:38;95466.97;;;5.38;100.00
6347;BME280;3206;42.666;23.600;2022-09-23T04:59:07;95457.22;;;5.47;100.00
6347;BME280;3206;42.666;23.600;2022-09-23T05:01:34;95466.50;;;5.58;100.00
6347;BME280;3206;42.666;23.600;2022-09-23T05:04:04;95464.88;;;5.35;100.00
6347;BME280;3206;42.666;23.600;2022-09-23T05:06:32;95459.50;;;5.40;100.00
6347;BME280;3206;42.666;23.600;2022-09-23T05:09:00;95471.41;;;5.51;100.00
6347;BME280;3206;42.666;23.600;2022-09-23T05:11:29;95473.66;;;5.57;100.00
6347;BME280;3206;42.666;23.600;2022-09-23T05:13:56;95477.84;;;5.72;100.00
6347;BME280;3206;42.666;23.600;2022-09-23T05:16:25;95481.16;;;5.42;100.00
6347;BME280;3206;42.666;23.600;2022-09-23T05:18:52;95477.34;;;5.35;100.00
6347;BME280;3206;42.666;23.600;2022-09-23T05:21:20;95478.03;;;5.75;100.00
6347;BME280;3206;42.666;23.600;2022-09-23T05:23:49;95494.69;;;5.89;100.00
6347;BME280;3206;42.666;23.600;2022-09-23T05:26:16;95495.84;;;5.97;100.00
6347;BME280;3206;42.666;23.600;2022-09-23T05:28:43;95488.44;;;5.85;100.00
6347;BME280;3206;42.666;23.600;2022-09-23T05:31:11;95493.13;;;5.88;100.00
6347;BME280;3206;42.666;23.600;2022-09-23T05:33:42;95490.78;;;6.09;100.00
6347;BME280;3206;42.666;23.600;2022-09-23T05:36:11;95492.47;;;6.27;100.00
6347;BME280;3206;42.666;23.600;2022-09-23T05:38:38;95484.28;;;6.37;100.00
6347;BME280;3206;42.666;23.600;2022-09-23T05:41:06;95498.72;;;6.53;100.00
6347;BME280;3206;42.666;23.600;2022-09-23T05:43:34;95482.84;;;6.61;100.00
6347;BME280;3206;42.666;23.600;2022-09-23T05:46:01;95493.53;;;6.78;100.00
6347;BME280;3206;42.666;23.600;2022-09-23T05:48:28;95490.78;;;6.92;100.00
6347;BME280;3206;42.666;23.600;2022-09-23T05:50:58;95489.47;;;7.20;100.00
6347;BME280;3206;42.666;23.600;2022-09-23T05:53:26;95490.94;;;7.42;100.00
6347;BME280;3206;42.666;23.600;2022-09-23T05:55:53;95491.59;;;7.65;100.00
6347;BME280;3206;42.666;23.600;2022-09-23T05:58:20;95481.91;;;7.77;100.00
6347;BME280;3206;42.666;23.600;2022-09-23T06:00:48;95488.94;;;7.90;100.00
6347;BME280;3206;42.666;23.600;2022-09-23T06:03:16;95485.19;;;7.91;100.00
6347;BME280;3206;42.666;23.600;2022-09-23T06:05:44;95476.88;;;8.52;100.00
6347;BME280;3206;42.666;23.600;2022-09-23T06:08:13;95487.38;;;9.81;100.00
6347;BME280;3206;42.666;23.600;2022-09-23T06:10:42;95496.25;;;10.14;100.00
6347;BME280;3206;42.666;23.600;2022-09-23T06:13:09;95504.66;;;11.02;100.00
6347;BME280;3206;42.666;23.600;2022-09-23T06:15:36;95496.19;;;10.55;100.00
6347;BME280;3206;42.666;23.600;2022-09-23T06:18:04;95492.03;;;10.46;100.00
6347;BME280;3206;42.666;23.600;2022-09-23T06:20:32;95492.03;;;10.46;100.00
6347;BME280;3206;42.666;23.600;2022-09-23T06:23:02;95489.28;;;10.54;100.00
6347;BME280;3206;42.666;23.600;2022-09-23T06:25:31;95505.00;;;10.35;100.00
6347;BME280;3206;42.666;23.600;2022-09-23T06:27:58;95489.06;;;10.27;100.00
6347;BME280;3206;42.666;23.600;2022-09-23T06:30:25;95489.50;;;10.29;100.00
6347;BME280;3206;42.666;23.600;2022-09-23T06:32:54;95486.91;;;10.41;100.00
6347;BME280;3206;42.666;23.600;2022-09-23T06:35:23;95495.56;;;10.38;100.00
6347;BME280;3206;42.666;23.600;2022-09-23T06:37:51;95490.53;;;10.24;100.00
6347;BME280;3206;42.666;23.600;2022-09-23T06:40:18;95491.75;;;10.59;100.00
6347;BME280;3206;42.666;23.600;2022-09-23T06:42:47;95491.03;;;10.83;100.00
6347;BME280;3206;42.666;23.600;2022-09-23T06:45:14;95497.78;;;11.13;100.00
6347;BME280;3206;42.666;23.600;2022-09-23T06:47:41;95493.88;;;11.22;100.00
6347;BME280;3206;42.666;23.600;2022-09-23T06:50:09;95500.22;;;11.41;100.00
6347;BME280;3206;42.666;23.600;2022-09-23T06:52:37;95501.13;;;11.57;100.00
6347;BME280;3206;42.666;23.600;2022-09-23T06:55:04;95504.69;;;11.85;100.00
6347;BME280;3206;42.666;23.600;2022-09-23T06:57:32;95516.38;;;11.69;100.00
6347;BME280;3206;42.666;23.600;2022-09-23T07:00:00;95515.63;;;11.56;100.00
6347;BME280;3206;42.666;23.600;2022-09-23T07:02:27;95508.94;;;11.62;100.00
6347;BME280;3206;42.666;23.600;2022-09-23T07:04:54;95510.94;;;11.65;100.00
6347;BME280;3206;42.666;23.600;2022-09-23T07:07:21;95514.81;;;11.32;100.00
6347;BME280;3206;42.666;23.600;2022-09-23T07:09:48;95517.59;;;11.23;100.00
6347;BME280;3206;42.666;23.600;2022-09-23T07:12:15;95513.53;;;10.94;100.00
6347;BME280;3206;42.666;23.600;2022-09-23T07:14:42;95512.41;;;10.83;100.00
6347;BME280;3206;42.666;23.600;2022-09-23T07:17:10;95515.28;;;10.78;100.00
6347;BME280;3206;42.666;23.600;2022-09-23T07:19:37;95523.63;;;10.76;100.00
6347;BME280;3206;42.666;23.600;2022-09-23T07:22:03;95529.09;;;10.80;100.00
6347;BME280;3206;42.666;23.600;2022-09-23T07:24:31;95523.47;;;10.93;100.00
6347;BME280;3206;42.666;23.600;2022-09-23T07:26:58;95529.16;;;11.04;100.00
6347;BME280;3206;42.666;23.600;2022-09-23T07:29:25;95530.84;;;11.20;100.00
6347;BME280;3206;42.666;23.600;2022-09-23T07:31:51;95535.88;;;11.33;100.00
6347;BME280;3206;42.666;23.600;2022-09-23T07:34:19;95522.28;;;11.50;100.00
6347;BME280;3206;42.666;23.600;2022-09-23T07:36:46;95525.41;;;11.76;100.00
6347;BME280;3206;42.666;23.600;2022-09-23T07:39:13;95522.47;;;12.05;100.00
6347;BME280;3206;42.666;23.600;2022-09-23T07:41:40;95516.06;;;11.70;100.00
6347;BME280;3206;42.666;23.600;2022-09-23T07:44:09;95530.75;;;11.52;100.00
6347;BME280;3206;42.666;23.600;2022-09-23T07:46:37;95527.97;;;11.37;100.00
6347;BME280;3206;42.666;23.600;2022-09-23T07:49:04;95522.06;;;11.55;100.00
6347;BME280;3206;42.666;23.600;2022-09-23T07:51:34;95525.72;;;11.99;100.00
6347;BME280;3206;42.666;23.600;2022-09-23T07:54:02;95519.63;;;12.38;100.00
6347;BME280;3206;42.666;23.600;2022-09-23T07:56:29;95521.13;;;13.67;100.00
6347;BME280;3206;42.666;23.600;2022-09-23T07:58:56;95512.16;;;16.01;100.00
6347;BME280;3206;42.666;23.600;2022-09-23T08:01:29;95526.94;;;16.66;100.00
6347;BME280;3206;42.666;23.600;2022-09-23T08:03:57;95529.78;;;17.13;100.00
6347;BME280;3206;42.666;23.600;2022-09-23T08:06:24;95513.88;;;15.38;100.00
6347;BME280;3206;42.666;23.600;2022-09-23T08:08:53;95525.72;;;14.36;100.00
6347;BME280;3206;42.666;23.600;2022-09-23T08:11:22;95527.16;;;13.18;100.00
6347;BME280;3206;42.666;23.600;2022-09-23T08:13:49;95523.72;;;12.90;100.00
6347;BME280;3206;42.666;23.600;2022-09-23T08:16:16;95526.09;;;13.07;100.00
6347;BME280;3206;42.666;23.600;2022-09-23T08:18:43;95519.59;;;12.65;100.00
6347;BME280;3206;42.666;23.600;2022-09-23T08:21:10;95524.53;;;12.63;100.00
6347;BME280;3206;42.666;23.600;2022-09-23T08:23:37;95514.00;;;12.70;100.00
6347;BME280;3206;42.666;23.600;2022-09-23T08:26:05;95507.88;;;12.85;100.00
6347;BME280;3206;42.666;23.600;2022-09-23T08:28:32;95505.63;;;13.30;100.00
6347;BME280;3206;42.666;23.600;2022-09-23T08:30:59;95513.16;;;13.40;100.00
6347;BME280;3206;42.666;23.600;2022-09-23T08:33:26;95507.88;;;13.28;100.00
6347;BME280;3206;42.666;23.600;2022-09-23T08:35:57;95507.44;;;13.41;100.00
6347;BME280;3206;42.666;23.600;2022-09-23T08:38:24;95506.75;;;13.29;100.00
6347;BME280;3206;42.666;23.600;2022-09-23T08:40:54;95502.59;;;13.16;100.00
6347;BME280;3206;42.666;23.600;2022-09-23T08:43:33;95505.88;;;13.10;100.00
6347;BME280;3206;42.666;23.600;2022-09-23T08:46:02;95498.94;;;13.24;100.00
6347;BME280;3206;42.666;23.600;2022-09-23T08:48:32;95502.84;;;13.42;100.00
6347;BME280;3206;42.666;23.600;2022-09-23T08:51:03;95498.19;;;13.54;100.00
6347;BME280;3206;42.666;23.600;2022-09-23T08:53:32;95491.94;;;13.66;100.00
6347;BME280;3206;42.666;23.600;2022-09-23T08:56:03;95489.78;;;13.90;100.00
6347;BME280;3206;42.666;23.600;2022-09-23T08:58:46;95491.16;;;14.95;100.00
6347;BME280;3206;42.666;23.600;2022-09-23T09:01:20;95488.28;;;15.06;100.00
6347;BME280;3206;42.666;23.600;2022-09-23T09:03:50;95484.94;;;17.02;97.03
6347;BME280;3206;42.666;23.600;2022-09-23T09:06:23;95484.78;;;20.25;73.06
6347;BME280;3206;42.666;23.600;2022-09-23T09:08:55;95493.22;;;22.69;58.49
6347;BME280;3206;42.666;23.600;2022-09-23T09:11:27;95495.97;;;21.34;59.36
6347;BME280;3206;42.666;23.600;2022-09-23T09:14:04;95494.47;;;21.22;57.51
6347;BME280;3206;42.666;23.600;2022-09-23T09:16:51;95501.06;;;19.83;59.07
6347;BME280;3206;42.666;23.600;2022-09-23T09:19:41;95491.72;;;21.29;56.64
6347;BME280;3206;42.666;23.600;2022-09-23T09:22:26;95490.31;;;22.83;51.72
6347;BME280;3206;42.666;23.600;2022-09-23T09:25:03;95456.03;;;22.56;48.62
6347;BME280;3206;42.666;23.600;2022-09-23T09:27:31;95492.31;;;22.46;48.65
6347;BME280;3206;42.666;23.600;2022-09-23T09:30:00;95489.06;;;22.58;47.27
6347;BME280;3206;42.666;23.600;2022-09-23T09:32:34;95487.75;;;23.85;44.57
6347;BME280;3206;42.666;23.600;2022-09-23T09:35:19;95477.31;;;24.03;45.26
6347;BME280;3206;42.666;23.600;2022-09-23T09:37:49;95492.16;;;22.19;49.06
6347;BME280;3206;42.666;23.600;2022-09-23T09:40:16;95488.91;;;21.94;50.12
6347;BME280;3206;42.666;23.600;2022-09-23T09:42:46;95495.34;;;22.14;49.07
6347;BME280;3206;42.666;23.600;2022-09-23T09:45:20;95488.88;;;21.98;49.29
6347;BME280;3206;42.666;23.600;2022-09-23T09:47:58;95475.59;;;22.44;49.67
6347;BME280;3206;42.666;23.600;2022-09-23T09:50:47;95487.47;;;23.23;47.78
6347;BME280;3206;42.666;23.600;2022-09-23T09:53:24;95470.59;;;23.85;46.15
6347;BME280;3206;42.666;23.600;2022-09-23T09:55:57;95490.34;;;23.13;47.39
6347;BME280;3206;42.666;23.600;2022-09-23T09:58:26;95487.63;;;24.15;46.52
6347;BME280;3206;42.666;23.600;2022-09-23T10:00:57;95489.97;;;24.36;43.66
6347;BME280;3206;42.666;23.600;2022-09-23T10:03:31;95487.97;;;25.37;42.27
6347;BME280;3206;42.666;23.600;2022-09-23T10:05:59;95479.56;;;22.36;44.24
6347;BME280;3206;42.666;23.600;2022-09-23T10:08:28;95479.75;;;22.89;45.29
6347;BME280;3206;42.666;23.600;2022-09-23T10:11:01;95476.44;;;22.37;46.16
6347;BME280;3206;42.666;23.600;2022-09-23T10:13:29;95482.03;;;21.25;47.01
6347;BME280;3206;42.666;23.600;2022-09-23T10:15:59;95481.00;;;21.05;47.53
6347;BME280;3206;42.666;23.600;2022-09-23T10:18:29;95472.78;;;21.12;48.46
6347;BME280;3206;42.666;23.600;2022-09-23T10:21:02;95469.94;;;21.87;47.74
6347;BME280;3206;42.666;23.600;2022-09-23T10:23:32;95474.34;;;24.37;44.16
6347;BME280;3206;42.666;23.600;2022-09-23T10:26:02;95463.00;;;24.38;43.36
6347;BME280;3206;42.666;23.600;2022-09-23T10:28:31;95467.56;;;23.53;42.66
6347;BME280;3206;42.666;23.600;2022-09-23T10:31:06;95466.22;;;23.11;43.24
6347;BME280;3206;42.666;23.600;2022-09-23T10:33:39;95460.59;;;21.88;45.95
6347;BME280;3206;42.666;23.600;2022-09-23T10:36:08;95455.94;;;22.63;44.66
6347;BME280;3206;42.666;23.600;2022-09-23T10:38:35;95437.34;;;23.17;43.45
6347;BME280;3206;42.666;23.600;2022-09-23T10:41:04;95457.94;;;23.94;41.63
6347;BME280;3206;42.666;23.600;2022-09-23T10:44:01;95453.16;;;23.00;42.73
6347;BME280;3206;42.666;23.600;2022-09-23T10:46:55;95447.41;;;22.91;43.92
6347;BME280;3206;42.666;23.600;2022-09-23T10:49:37;95453.75;;;22.51;43.09
6347;BME280;3206;42.666;23.600;2022-09-23T10:52:23;95451.50;;;23.58;42.40
6347;BME280;3206;42.666;23.600;2022-09-23T10:54:59;95446.44;;;24.06;40.58
6347;BME280;3206;42.666;23.600;2022-09-23T10:57:41;95453.22;;;24.99;39.48
6347;BME280;3206;42.666;23.600;2022-09-23T11:00:24;95441.84;;;25.01;39.68
6347;BME280;3206;42.666;23.600;2022-09-23T11:06:12;95429.91;;;24.75;39.59
6347;BME280;3206;42.666;23.600;2022-09-23T11:09:05;95419.88;;;23.64;40.33
6347;BME280;3206;42.666;23.600;2022-09-23T11:11:42;95429.13;;;23.93;41.16
6347;BME280;3206;42.666;23.600;2022-09-23T11:14:24;95421.75;;;23.67;40.70
6347;BME280;3206;42.666;23.600;2022-09-23T11:17:06;95421.28;;;23.72;40.04
6347;BME280;3206;42.666;23.600;2022-09-23T11:20:02;95423.28;;;22.26;42.24
6347;BME280;3206;42.666;23.600;2022-09-23T11:22:51;95409.22;;;23.24;41.89
6347;BME280;3206;42.666;23.600;2022-09-23T11:25:28;95412.69;;;24.94;39.87
6347;BME280;3206;42.666;23.600;2022-09-23T11:28:12;95420.16;;;25.93;37.31
6347;BME280;3206;42.666;23.600;2022-09-23T11:30:47;95418.94;;;26.95;35.19
6347;BME280;3206;42.666;23.600;2022-09-23T11:33:29;95415.28;;;26.45;35.35
6347;BME280;3206;42.666;23.600;2022-09-23T11:36:00;95402.31;;;27.15;35.40
6347;BME280;3206;42.666;23.600;2022-09-23T11:38:35;95404.16;;;27.42;33.57
6347;BME280;3206;42.666;23.600;2022-09-23T11:41:17;95404.78;;;27.96;33.21
6347;BME280;3206;42.666;23.600;2022-09-23T11:43:48;95393.19;;;27.55;33.41
6347;BME280;3206;42.666;23.600;2022-09-23T11:46:25;95393.16;;;27.67;33.85
6347;BME280;3206;42.666;23.600;2022-09-23T11:48:55;95382.88;;;25.83;36.69
6347;BME280;3206;42.666;23.600;2022-09-23T11:51:28;95378.19;;;26.28;35.44
6347;BME280;3206;42.666;23.600;2022-09-23T11:53:59;95386.34;;;27.09;34.42
6347;BME280;3206;42.666;23.600;2022-09-23T11:56:32;95385.63;;;28.39;32.79
6347;BME280;3206;42.666;23.600;2022-09-23T11:59:05;95387.72;;;28.35;33.02
6347;BME280;3206;42.666;23.600;2022-09-23T12:01:39;95386.03;;;29.02;32.78
6347;BME280;3206;42.666;23.600;2022-09-23T12:04:15;95376.69;;;31.04;31.18
6347;BME280;3206;42.666;23.600;2022-09-23T12:06:47;95379.75;;;27.94;32.71
6347;BME280;3206;42.666;23.600;2022-09-23T12:09:21;95370.72;;;25.84;34.16
6347;BME280;3206;42.666;23.600;2022-09-23T12:11:56;95366.31;;;25.58;34.72
6347;BME280;3206;42.666;23.600;2022-09-23T12:14:30;95368.53;;;24.02;35.56
6347;BME280;3206;42.666;23.600;2022-09-23T12:17:22;95371.69;;;24.39;37.17
6347;BME280;3206;42.666;23.600;2022-09-23T12:20:04;95365.91;;;25.27;35.71
6347;BME280;3206;42.666;23.600;2022-09-23T12:22:48;95361.53;;;25.62;34.66
6347;BME280;3206;42.666;23.600;2022-09-23T12:25:34;95372.00;;;24.64;35.79
6347;BME280;3206;42.666;23.600;2022-09-23T12:28:05;95362.09;;;22.37;40.11
6347;BME280;3206;42.666;23.600;2022-09-23T12:30:37;95365.91;;;21.32;43.56
6347;BME280;3206;42.666;23.600;2022-09-23T12:33:07;95370.97;;;19.76;46.70
6347;BME280;3206;42.666;23.600;2022-09-23T12:35:39;95355.50;;;19.66;48.02
6347;BME280;3206;42.666;23.600;2022-09-23T12:38:12;95366.28;;;21.34;45.41
6347;BME280;3206;42.666;23.600;2022-09-23T12:40:41;95359.63;;;22.20;43.35
6347;BME280;3206;42.666;23.600;2022-09-23T12:43:15;95358.00;;;22.56;41.47
6347;BME280;3206;42.666;23.600;2022-09-23T12:45:42;95359.25;;;22.18;41.45
6347;BME280;3206;42.666;23.600;2022-09-23T12:48:42;95367.97;;;21.65;42.48
6347;BME280;3206;42.666;23.600;2022-09-23T12:51:19;95346.38;;;22.22;41.73
6347;BME280;3206;42.666;23.600;2022-09-23T12:54:13;95360.88;;;23.02;40.25
6347;BME280;3206;42.666;23.600;2022-09-23T12:56:59;95367.78;;;24.40;38.71
6347;BME280;3206;42.666;23.600;2022-09-23T12:59:31;95368.72;;;22.40;40.46
6347;BME280;3206;42.666;23.600;2022-09-23T13:02:24;95365.75;;;21.06;43.43
6347;BME280;3206;42.666;23.600;2022-09-23T13:04:56;95370.97;;;19.73;46.14
6347;BME280;3206;42.666;23.600;2022-09-23T13:07:42;95380.28;;;19.12;48.11
6347;BME280;3206;42.666;23.600;2022-09-23T13:10:15;95367.88;;;18.66;48.60
6347;BME280;3206;42.666;23.600;2022-09-23T13:12:45;95376.50;;;18.04;49.01
6347;BME280;3206;42.666;23.600;2022-09-23T13:15:16;95377.38;;;17.54;50.56
6347;BME280;3206;42.666;23.600;2022-09-23T13:17:47;95381.47;;;16.87;52.31
6347;BME280;3206;42.666;23.600;2022-09-23T13:20:35;95377.28;;;16.53;52.92
6347;BME280;3206;42.666;23.600;2022-09-23T13:23:14;95383.22;;;16.69;53.48
6347;BME280;3206;42.666;23.600;2022-09-23T13:25:42;95383.03;;;16.88;55.11
6347;BME280;3206;42.666;23.600;2022-09-23T13:28:26;95384.97;;;16.88;55.36
6347;BME280;3206;42.666;23.600;2022-09-23T13:30:53;95381.56;;;16.94;56.13
6347;BME280;3206;42.666;23.600;2022-09-23T13:33:25;95384.50;;;17.22;55.15
6347;BME280;3206;42.666;23.600;2022-09-23T13:35:58;95385.44;;;17.00;56.25